Reinerton, Pennsylvania
Current Conditions -  °F | °C
As of 4:58 PM on Sunday 25 Jan 2015 (Local Time) from KMUI Reporting Station
Few Clouds Few Clouds  
Wind Chill: 38°   Ceiling: Unl
Heat Index: 38°   Visibility: 10mi
Dew Point: 29°   Wind: 1mph
Humidity: 72%   Direction: NA
Pressure: 29.82"   Gusts: NA
Location:  40.5383°N, 76.6127°W
Report Text: KMUI 252158Z AUTO VRB01KT 10SM FEW026 03/M02 A2982 RMK AO2 SLP105 T00311016
Loading
Personal Weather Stations






























Interactive Weather Map New forecast layout! Learn more

10-Day Weather Forecast

Advertisements
Track Severe Weather on mobile